sensor_id;sensor_type;location;lat;lon;timestamp;pressure;altitude;pressure_sealevel;temperature;humidity
24752;BME280;27246;52.376;4.628;2022-07-23T00:04:23;101851.22;;;16.49;67.59
24752;BME280;27246;52.376;4.628;2022-07-23T00:09:25;101855.03;;;16.48;67.93
24752;BME280;27246;52.376;4.628;2022-07-23T00:14:26;101838.31;;;16.42;67.85
24752;BME280;27246;52.376;4.628;2022-07-23T00:19:28;101845.38;;;16.44;68.13
24752;BME280;27246;52.376;4.628;2022-07-23T00:24:30;101838.31;;;16.42;68.19
24752;BME280;27246;52.376;4.628;2022-07-23T00:29:32;101839.00;;;16.29;68.79
24752;BME280;27246;52.376;4.628;2022-07-23T00:34:33;101848.44;;;16.28;68.48
24752;BME280;27246;52.376;4.628;2022-07-23T00:39:35;101834.25;;;16.23;68.83
24752;BME280;27246;52.376;4.628;2022-07-23T00:44:37;101827.78;;;16.15;69.27
24752;BME280;27246;52.376;4.628;2022-07-23T00:49:45;101833.66;;;16.06;69.87
24752;BME280;27246;52.376;4.628;2022-07-23T00:54:46;101824.72;;;16.10;70.07
24752;BME280;27246;52.376;4.628;2022-07-23T00:59:48;101819.56;;;16.07;70.37
24752;BME280;27246;52.376;4.628;2022-07-23T01:04:50;101810.38;;;16.07;70.46
24752;BME280;27246;52.376;4.628;2022-07-23T01:09:53;101799.91;;;16.09;70.38
24752;BME280;27246;52.376;4.628;2022-07-23T01:14:57;101796.19;;;16.02;70.73
24752;BME280;27246;52.376;4.628;2022-07-23T01:20:00;101807.50;;;16.00;70.90
24752;BME280;27246;52.376;4.628;2022-07-23T01:25:03;101791.81;;;15.92;71.11
24752;BME280;27246;52.376;4.628;2022-07-23T01:30:05;101790.97;;;15.92;71.20
24752;BME280;27246;52.376;4.628;2022-07-23T01:35:08;101785.16;;;15.87;71.38
24752;BME280;27246;52.376;4.628;2022-07-23T01:40:10;101795.28;;;15.79;71.56
24752;BME280;27246;52.376;4.628;2022-07-23T01:45:13;101793.97;;;15.75;71.59
24752;BME280;27246;52.376;4.628;2022-07-23T01:50:19;101781.69;;;15.70;71.46
24752;BME280;27246;52.376;4.628;2022-07-23T01:55:48;101778.44;;;15.66;71.77
24752;BME280;27246;52.376;4.628;2022-07-23T02:00:50;101795.91;;;15.60;72.00
24752;BME280;27246;52.376;4.628;2022-07-23T02:05:53;101803.78;;;15.56;72.18
24752;BME280;27246;52.376;4.628;2022-07-23T02:10:55;101798.53;;;15.47;72.39
24752;BME280;27246;52.376;4.628;2022-07-23T02:15:57;101806.38;;;15.43;72.37
24752;BME280;27246;52.376;4.628;2022-07-23T02:20:59;101812.22;;;15.33;72.28
24752;BME280;27246;52.376;4.628;2022-07-23T02:26:01;101817.69;;;15.27;72.47
24752;BME280;27246;52.376;4.628;2022-07-23T02:31:03;101825.34;;;15.25;72.23
24752;BME280;27246;52.376;4.628;2022-07-23T02:36:05;101826.03;;;15.12;72.33
24752;BME280;27246;52.376;4.628;2022-07-23T02:41:07;101826.69;;;15.14;72.54
24752;BME280;27246;52.376;4.628;2022-07-23T02:46:09;101818.66;;;15.19;72.26
24752;BME280;27246;52.376;4.628;2022-07-23T02:51:11;101822.38;;;15.26;72.08
24752;BME280;27246;52.376;4.628;2022-07-23T02:56:20;101826.13;;;15.18;72.24
24752;BME280;27246;52.376;4.628;2022-07-23T03:01:22;101813.69;;;15.14;72.59
24752;BME280;27246;52.376;4.628;2022-07-23T03:06:23;101803.06;;;15.18;72.76
24752;BME280;27246;52.376;4.628;2022-07-23T03:11:25;101825.81;;;15.13;72.60
24752;BME280;27246;52.376;4.628;2022-07-23T03:16:27;101809.84;;;15.15;72.78
24752;BME280;27246;52.376;4.628;2022-07-23T03:21:29;101815.66;;;15.06;73.01
24752;BME280;27246;52.376;4.628;2022-07-23T03:26:30;101812.53;;;15.09;73.46
24752;BME280;27246;52.376;4.628;2022-07-23T03:31:32;101809.44;;;15.04;72.77
24752;BME280;27246;52.376;4.628;2022-07-23T03:36:34;101810.22;;;14.97;73.49
24752;BME280;27246;52.376;4.628;2022-07-23T03:41:36;101817.50;;;14.98;73.58
24752;BME280;27246;52.376;4.628;2022-07-23T03:46:37;101806.41;;;14.98;74.14
24752;BME280;27246;52.376;4.628;2022-07-23T03:51:39;101825.81;;;14.98;74.12
24752;BME280;27246;52.376;4.628;2022-07-23T03:56:41;101815.09;;;14.95;73.56
24752;BME280;27246;52.376;4.628;2022-07-23T04:01:44;101824.06;;;14.83;74.07
24752;BME280;27246;52.376;4.628;2022-07-23T04:06:45;101824.25;;;14.81;73.85
24752;BME280;27246;52.376;4.628;2022-07-23T04:11:49;101839.28;;;14.87;74.11
24752;BME280;27246;52.376;4.628;2022-07-23T04:16:51;101838.69;;;14.76;74.27
24752;BME280;27246;52.376;4.628;2022-07-23T04:21:54;101822.09;;;14.53;74.70
24752;BME280;27246;52.376;4.628;2022-07-23T04:26:55;101813.91;;;14.75;74.87
24752;BME280;27246;52.376;4.628;2022-07-23T04:31:57;101814.81;;;14.90;74.82
24752;BME280;27246;52.376;4.628;2022-07-23T04:36:59;101813.47;;;15.01;75.14
24752;BME280;27246;52.376;4.628;2022-07-23T04:42:03;101812.34;;;15.10;74.67
24752;BME280;27246;52.376;4.628;2022-07-23T04:47:06;101809.84;;;15.15;74.82
24752;BME280;27246;52.376;4.628;2022-07-23T04:52:08;101814.25;;;15.10;75.48
24752;BME280;27246;52.376;4.628;2022-07-23T04:57:10;101818.16;;;15.15;75.42
24752;BME280;27246;52.376;4.628;2022-07-23T05:02:13;101812.31;;;15.25;75.79
24752;BME280;27246;52.376;4.628;2022-07-23T05:07:15;101817.09;;;15.31;75.65
24752;BME280;27246;52.376;4.628;2022-07-23T05:12:16;101816.44;;;15.29;75.98
24752;BME280;27246;52.376;4.628;2022-07-23T05:17:18;101822.56;;;15.39;76.50
24752;BME280;27246;52.376;4.628;2022-07-23T05:22:20;101829.75;;;15.49;76.43
24752;BME280;27246;52.376;4.628;2022-07-23T05:27:22;101842.19;;;15.53;76.38
24752;BME280;27246;52.376;4.628;2022-07-23T05:32:24;101838.34;;;15.54;75.78
24752;BME280;27246;52.376;4.628;2022-07-23T05:37:35;101844.66;;;15.63;76.15
24752;BME280;27246;52.376;4.628;2022-07-23T05:42:38;101854.34;;;15.67;76.22
24752;BME280;27246;52.376;4.628;2022-07-23T05:47:42;101849.31;;;15.77;75.75
24752;BME280;27246;52.376;4.628;2022-07-23T05:52:45;101852.56;;;15.95;75.03
24752;BME280;27246;52.376;4.628;2022-07-23T05:58:04;101860.13;;;16.02;73.20
24752;BME280;27246;52.376;4.628;2022-07-23T06:03:05;101840.88;;;16.22;73.00
24752;BME280;27246;52.376;4.628;2022-07-23T06:08:07;101848.44;;;16.28;72.68
24752;BME280;27246;52.376;4.628;2022-07-23T06:13:09;101842.69;;;16.29;71.02
24752;BME280;27246;52.376;4.628;2022-07-23T06:18:11;101845.47;;;16.29;71.31
24752;BME280;27246;52.376;4.628;2022-07-23T06:23:13;101847.16;;;16.30;71.34
24752;BME280;27246;52.376;4.628;2022-07-23T06:28:17;101859.47;;;16.43;70.62
24752;BME280;27246;52.376;4.628;2022-07-23T06:33:18;101863.66;;;16.53;69.45
24752;BME280;27246;52.376;4.628;2022-07-23T06:38:20;101852.94;;;16.50;68.89
24752;BME280;27246;52.376;4.628;2022-07-23T06:43:22;101859.34;;;16.51;67.75
24752;BME280;27246;52.376;4.628;2022-07-23T06:48:28;101868.63;;;16.58;66.29
24752;BME280;27246;52.376;4.628;2022-07-23T06:53:30;101859.63;;;16.56;66.91
24752;BME280;27246;52.376;4.628;2022-07-23T06:58:32;101866.88;;;16.57;67.12
24752;BME280;27246;52.376;4.628;2022-07-23T07:03:33;101880.13;;;16.55;67.13
24752;BME280;27246;52.376;4.628;2022-07-23T07:08:35;101889.31;;;16.77;66.52
24752;BME280;27246;52.376;4.628;2022-07-23T07:13:37;101892.28;;;16.90;65.48
24752;BME280;27246;52.376;4.628;2022-07-23T07:18:39;101889.59;;;16.82;65.58
24752;BME280;27246;52.376;4.628;2022-07-23T07:23:41;101889.06;;;16.93;65.33
24752;BME280;27246;52.376;4.628;2022-07-23T07:28:44;101886.66;;;17.12;64.84
24752;BME280;27246;52.376;4.628;2022-07-23T07:33:46;101897.66;;;17.20;64.74
24752;BME280;27246;52.376;4.628;2022-07-23T07:38:47;101902.25;;;17.34;64.22
24752;BME280;27246;52.376;4.628;2022-07-23T07:43:51;101901.34;;;17.34;63.34
24752;BME280;27246;52.376;4.628;2022-07-23T07:48:53;101903.63;;;17.52;63.59
24752;BME280;27246;52.376;4.628;2022-07-23T07:53:59;101904.75;;;17.64;63.59
24752;BME280;27246;52.376;4.628;2022-07-23T07:59:02;101900.19;;;17.85;63.08
24752;BME280;27246;52.376;4.628;2022-07-23T08:04:04;101901.78;;;17.66;62.89
24752;BME280;27246;52.376;4.628;2022-07-23T08:09:06;101897.16;;;17.79;62.78
24752;BME280;27246;52.376;4.628;2022-07-23T08:14:08;101898.09;;;17.93;62.22
24752;BME280;27246;52.376;4.628;2022-07-23T08:19:10;101896.22;;;18.21;61.32
24752;BME280;27246;52.376;4.628;2022-07-23T08:24:12;101901.66;;;18.49;60.24
24752;BME280;27246;52.376;4.628;2022-07-23T08:29:13;101903.69;;;18.88;61.42
24752;BME280;27246;52.376;4.628;2022-07-23T08:34:15;101914.22;;;19.06;60.64
24752;BME280;27246;52.376;4.628;2022-07-23T08:39:17;101910.56;;;19.06;59.42
24752;BME280;27246;52.376;4.628;2022-07-23T08:44:20;101916.34;;;18.97;58.29
24752;BME280;27246;52.376;4.628;2022-07-23T08:49:22;101915.06;;;19.27;57.41
24752;BME280;27246;52.376;4.628;2022-07-23T08:54:24;101920.84;;;19.25;56.21
24752;BME280;27246;52.376;4.628;2022-07-23T08:59:26;101921.50;;;19.27;56.14
24752;BME280;27246;52.376;4.628;2022-07-23T09:04:30;101917.59;;;19.42;55.61
24752;BME280;27246;52.376;4.628;2022-07-23T09:09:32;101930.06;;;19.72;56.21
24752;BME280;27246;52.376;4.628;2022-07-23T09:19:40;101916.22;;;19.91;54.51
24752;BME280;27246;52.376;4.628;2022-07-23T09:25:12;101929.53;;;19.95;53.28
24752;BME280;27246;52.376;4.628;2022-07-23T09:30:15;101924.56;;;19.97;53.46
24752;BME280;27246;52.376;4.628;2022-07-23T09:35:17;101913.84;;;20.33;53.34
24752;BME280;27246;52.376;4.628;2022-07-23T09:40:19;101917.97;;;20.69;53.17
24752;BME280;27246;52.376;4.628;2022-07-23T09:45:21;101918.38;;;20.72;53.27
24752;BME280;27246;52.376;4.628;2022-07-23T09:50:23;101917.50;;;21.04;53.08
24752;BME280;27246;52.376;4.628;2022-07-23T09:55:33;101918.47;;;21.16;51.79
24752;BME280;27246;52.376;4.628;2022-07-23T10:00:41;101919.59;;;21.33;51.97
24752;BME280;27246;52.376;4.628;2022-07-23T10:05:44;101920.34;;;21.22;50.89
24752;BME280;27246;52.376;4.628;2022-07-23T10:10:50;101916.47;;;21.67;50.67
24752;BME280;27246;52.376;4.628;2022-07-23T10:16:11;101916.78;;;21.59;50.84
24752;BME280;27246;52.376;4.628;2022-07-23T10:21:46;101913.44;;;21.87;50.82
24752;BME280;27246;52.376;4.628;2022-07-23T10:37:36;101914.81;;;21.41;50.44
24752;BME280;27246;52.376;4.628;2022-07-23T10:42:40;101920.28;;;21.91;51.54
24752;BME280;27246;52.376;4.628;2022-07-23T10:47:43;101905.38;;;22.27;48.65
24752;BME280;27246;52.376;4.628;2022-07-23T10:58:11;101903.91;;;21.51;50.35
24752;BME280;27246;52.376;4.628;2022-07-23T11:08:29;101910.25;;;22.02;48.38
24752;BME280;27246;52.376;4.628;2022-07-23T11:13:39;101914.09;;;22.38;45.79
24752;BME280;27246;52.376;4.628;2022-07-23T11:24:08;101917.09;;;22.66;46.94
24752;BME280;27246;52.376;4.628;2022-07-23T11:29:40;101911.34;;;23.15;45.92
24752;BME280;27246;52.376;4.628;2022-07-23T11:34:50;101904.25;;;22.89;47.26
24752;BME280;27246;52.376;4.628;2022-07-23T11:39:56;101914.06;;;23.45;46.00
24752;BME280;27246;52.376;4.628;2022-07-23T11:44:58;101903.78;;;23.04;45.81
24752;BME280;27246;52.376;4.628;2022-07-23T11:50:02;101908.69;;;23.32;46.14
24752;BME280;27246;52.376;4.628;2022-07-23T11:55:07;101909.78;;;23.43;44.96
24752;BME280;27246;52.376;4.628;2022-07-23T12:00:15;101898.66;;;23.71;45.09
24752;BME280;27246;52.376;4.628;2022-07-23T12:05:19;101893.13;;;23.77;42.80
24752;BME280;27246;52.376;4.628;2022-07-23T12:10:29;101890.59;;;24.04;43.76
24752;BME280;27246;52.376;4.628;2022-07-23T12:15:35;101886.38;;;24.30;43.16
24752;BME280;27246;52.376;4.628;2022-07-23T12:20:41;101887.34;;;24.35;41.84
24752;BME280;27246;52.376;4.628;2022-07-23T12:25:45;101890.41;;;24.34;42.30
24752;BME280;27246;52.376;4.628;2022-07-23T12:30:51;101892.09;;;24.64;41.76
24752;BME280;27246;52.376;4.628;2022-07-23T12:35:55;101879.50;;;24.54;42.39
24752;BME280;27246;52.376;4.628;2022-07-23T12:40:58;101882.31;;;24.54;40.61
24752;BME280;27246;52.376;4.628;2022-07-23T12:46:17;101880.81;;;24.64;41.59
24752;BME280;27246;52.376;4.628;2022-07-23T12:51:27;101874.34;;;24.97;41.66
24752;BME280;27246;52.376;4.628;2022-07-23T12:56:33;101872.84;;;25.06;40.77
24752;BME280;27246;52.376;4.628;2022-07-23T13:01:40;101867.16;;;24.89;41.81
24752;BME280;27246;52.376;4.628;2022-07-23T13:06:52;101869.31;;;25.16;41.00
24752;BME280;27246;52.376;4.628;2022-07-23T13:11:55;101872.00;;;25.45;40.91
24752;BME280;27246;52.376;4.628;2022-07-23T13:16:57;101877.66;;;25.45;39.12
24752;BME280;27246;52.376;4.628;2022-07-23T13:22:00;101879.94;;;25.65;40.47
24752;BME280;27246;52.376;4.628;2022-07-23T13:27:09;101885.06;;;25.51;39.94
24752;BME280;27246;52.376;4.628;2022-07-23T13:32:13;101872.06;;;25.50;40.37
24752;BME280;27246;52.376;4.628;2022-07-23T13:37:15;101874.28;;;25.48;41.29
24752;BME280;27246;52.376;4.628;2022-07-23T13:42:17;101868.97;;;25.68;41.18
24752;BME280;27246;52.376;4.628;2022-07-23T13:47:19;101874.81;;;25.84;41.69
24752;BME280;27246;52.376;4.628;2022-07-23T13:52:20;101865.28;;;25.90;41.47
24752;BME280;27246;52.376;4.628;2022-07-23T13:57:22;101875.16;;;25.87;41.13
24752;BME280;27246;52.376;4.628;2022-07-23T14:02:25;101852.81;;;25.64;40.99
24752;BME280;27246;52.376;4.628;2022-07-23T14:07:27;101859.25;;;25.59;41.25
24752;BME280;27246;52.376;4.628;2022-07-23T14:12:29;101866.47;;;25.72;42.05
24752;BME280;27246;52.376;4.628;2022-07-23T14:17:39;101869.72;;;25.81;42.08
24752;BME280;27246;52.376;4.628;2022-07-23T14:22:41;101867.94;;;25.74;41.40
24752;BME280;27246;52.376;4.628;2022-07-23T14:27:44;101863.00;;;25.65;41.39
24752;BME280;27246;52.376;4.628;2022-07-23T14:32:46;101865.81;;;25.65;42.46
24752;BME280;27246;52.376;4.628;2022-07-23T14:37:49;101866.34;;;25.45;42.56
24752;BME280;27246;52.376;4.628;2022-07-23T14:42:51;101861.06;;;25.48;42.00
24752;BME280;27246;52.376;4.628;2022-07-23T14:47:55;101867.47;;;25.44;42.22
24752;BME280;27246;52.376;4.628;2022-07-23T14:52:58;101870.31;;;25.27;42.21
24752;BME280;27246;52.376;4.628;2022-07-23T14:58:00;101865.97;;;25.36;42.18
24752;BME280;27246;52.376;4.628;2022-07-23T15:03:01;101858.88;;;25.55;41.93
24752;BME280;27246;52.376;4.628;2022-07-23T15:08:03;101856.25;;;25.49;42.13
24752;BME280;27246;52.376;4.628;2022-07-23T15:13:09;101867.31;;;25.33;42.50
24752;BME280;27246;52.376;4.628;2022-07-23T15:18:11;101859.78;;;25.39;42.56
24752;BME280;27246;52.376;4.628;2022-07-23T15:23:18;101853.34;;;25.44;42.21
24752;BME280;27246;52.376;4.628;2022-07-23T15:28:20;101846.97;;;25.31;42.08
24752;BME280;27246;52.376;4.628;2022-07-23T15:33:22;101853.00;;;25.18;42.73
24752;BME280;27246;52.376;4.628;2022-07-23T15:38:26;101847.34;;;25.18;42.80
24752;BME280;27246;52.376;4.628;2022-07-23T15:43:31;101846.81;;;25.21;42.47
24752;BME280;27246;52.376;4.628;2022-07-23T15:48:36;101843.59;;;25.12;42.79
24752;BME280;27246;52.376;4.628;2022-07-23T15:53:38;101842.50;;;24.97;43.33
24752;BME280;27246;52.376;4.628;2022-07-23T15:58:41;101841.38;;;25.14;43.51
24752;BME280;27246;52.376;4.628;2022-07-23T16:03:44;101835.38;;;25.11;43.07
24752;BME280;27246;52.376;4.628;2022-07-23T16:08:48;101823.31;;;25.15;43.32
24752;BME280;27246;52.376;4.628;2022-07-23T16:13:49;101829.09;;;25.04;43.61
24752;BME280;27246;52.376;4.628;2022-07-23T16:18:52;101815.06;;;25.09;42.83
24752;BME280;27246;52.376;4.628;2022-07-23T16:23:54;101815.94;;;24.92;43.70
24752;BME280;27246;52.376;4.628;2022-07-23T16:28:56;101815.56;;;24.89;42.99
24752;BME280;27246;52.376;4.628;2022-07-23T16:33:57;101817.13;;;24.97;43.55
24752;BME280;27246;52.376;4.628;2022-07-23T16:38:59;101817.03;;;24.91;42.90
24752;BME280;27246;52.376;4.628;2022-07-23T16:44:06;101824.97;;;24.61;44.35
24752;BME280;27246;52.376;4.628;2022-07-23T16:49:08;101813.38;;;24.74;43.84
24752;BME280;27246;52.376;4.628;2022-07-23T16:54:11;101818.47;;;24.60;43.78
24752;BME280;27246;52.376;4.628;2022-07-23T16:59:12;101814.88;;;24.65;43.20
24752;BME280;27246;52.376;4.628;2022-07-23T17:04:14;101801.56;;;24.60;43.61
24752;BME280;27246;52.376;4.628;2022-07-23T17:09:16;101814.88;;;24.65;43.41
24752;BME280;27246;52.376;4.628;2022-07-23T17:14:18;101810.53;;;24.57;43.58
24752;BME280;27246;52.376;4.628;2022-07-23T17:19:20;101800.03;;;24.52;43.79
24752;BME280;27246;52.376;4.628;2022-07-23T17:24:21;101812.66;;;24.50;43.62
24752;BME280;27246;52.376;4.628;2022-07-23T17:29:23;101803.25;;;24.27;44.05
24752;BME280;27246;52.376;4.628;2022-07-23T17:34:25;101810.09;;;24.31;43.42
24752;BME280;27246;52.376;4.628;2022-07-23T17:39:27;101806.94;;;24.16;43.94
24752;BME280;27246;52.376;4.628;2022-07-23T17:44:30;101804.09;;;23.99;44.16
24752;BME280;27246;52.376;4.628;2022-07-23T17:49:32;101811.47;;;23.88;44.30
24752;BME280;27246;52.376;4.628;2022-07-23T17:54:33;101793.94;;;23.69;45.06
24752;BME280;27246;52.376;4.628;2022-07-23T17:59:35;101805.53;;;23.85;45.56
24752;BME280;27246;52.376;4.628;2022-07-23T18:04:40;101806.00;;;23.82;45.13
24752;BME280;27246;52.376;4.628;2022-07-23T18:09:42;101803.25;;;23.58;45.13
24752;BME280;27246;52.376;4.628;2022-07-23T18:14:43;101796.78;;;23.46;45.66
24752;BME280;27246;52.376;4.628;2022-07-23T18:19:45;101797.91;;;23.45;45.60
24752;BME280;27246;52.376;4.628;2022-07-23T18:24:47;101800.34;;;23.41;45.80
24752;BME280;27246;52.376;4.628;2022-07-23T18:29:48;101795.94;;;23.33;46.29
24752;BME280;27246;52.376;4.628;2022-07-23T18:34:50;101795.84;;;23.28;46.44
24752;BME280;27246;52.376;4.628;2022-07-23T18:39:52;101797.69;;;23.11;46.75
24752;BME280;27246;52.376;4.628;2022-07-23T18:44:54;101794.41;;;23.14;47.13
24752;BME280;27246;52.376;4.628;2022-07-23T18:49:55;101793.91;;;22.93;47.26
24752;BME280;27246;52.376;4.628;2022-07-23T18:54:57;101785.38;;;22.88;47.45
24752;BME280;27246;52.376;4.628;2022-07-23T19:00:00;101782.44;;;22.83;47.62
24752;BME280;27246;52.376;4.628;2022-07-23T19:05:02;101791.59;;;22.79;47.90
24752;BME280;27246;52.376;4.628;2022-07-23T19:10:05;101781.09;;;22.86;48.53
24752;BME280;27246;52.376;4.628;2022-07-23T19:15:08;101779.38;;;22.85;48.71
24752;BME280;27246;52.376;4.628;2022-07-23T19:20:10;101793.38;;;22.73;49.12
24752;BME280;27246;52.376;4.628;2022-07-23T19:25:13;101793.50;;;22.66;49.47
24752;BME280;27246;52.376;4.628;2022-07-23T19:30:15;101802.41;;;22.51;49.84
24752;BME280;27246;52.376;4.628;2022-07-23T19:35:17;101802.16;;;22.41;50.19
24752;BME280;27246;52.376;4.628;2022-07-23T19:40:18;101797.88;;;22.39;50.18
24752;BME280;27246;52.376;4.628;2022-07-23T19:45:21;101799.56;;;22.28;50.86
24752;BME280;27246;52.376;4.628;2022-07-23T19:50:24;101797.97;;;22.32;51.04
24752;BME280;27246;52.376;4.628;2022-07-23T19:55:26;101807.59;;;22.24;50.98
24752;BME280;27246;52.376;4.628;2022-07-23T20:00:27;101813.03;;;22.07;51.55
24752;BME280;27246;52.376;4.628;2022-07-23T20:05:29;101793.84;;;22.04;51.89
24752;BME280;27246;52.376;4.628;2022-07-23T20:10:31;101799.31;;;21.99;52.40
24752;BME280;27246;52.376;4.628;2022-07-23T20:15:32;101806.81;;;21.87;53.26
24752;BME280;27246;52.376;4.628;2022-07-23T20:20:34;101806.34;;;21.90;53.41
24752;BME280;27246;52.376;4.628;2022-07-23T20:25:36;101795.44;;;21.82;53.57
24752;BME280;27246;52.376;4.628;2022-07-23T20:30:40;101789.00;;;21.81;53.79
24752;BME280;27246;52.376;4.628;2022-07-23T20:35:44;101795.78;;;21.73;54.47
24752;BME280;27246;52.376;4.628;2022-07-23T20:40:45;101799.19;;;21.75;54.16
24752;BME280;27246;52.376;4.628;2022-07-23T20:45:47;101791.91;;;21.74;54.34
24752;BME280;27246;52.376;4.628;2022-07-23T20:50:49;101799.22;;;21.57;55.00
24752;BME280;27246;52.376;4.628;2022-07-23T20:55:51;101793.13;;;21.60;55.43
24752;BME280;27246;52.376;4.628;2022-07-23T21:00:54;101787.41;;;21.55;55.89
24752;BME280;27246;52.376;4.628;2022-07-23T21:05:55;101790.03;;;21.50;56.22
24752;BME280;27246;52.376;4.628;2022-07-23T21:10:57;101776.97;;;21.44;56.61
24752;BME280;27246;52.376;4.628;2022-07-23T21:15:59;101784.13;;;21.40;57.09
24752;BME280;27246;52.376;4.628;2022-07-23T21:21:01;101793.03;;;21.36;57.48
24752;BME280;27246;52.376;4.628;2022-07-23T21:26:16;101775.63;;;21.28;57.59
24752;BME280;27246;52.376;4.628;2022-07-23T21:31:34;101774.16;;;21.25;57.80
24752;BME280;27246;52.376;4.628;2022-07-23T21:36:36;101778.09;;;21.17;58.41
24752;BME280;27246;52.376;4.628;2022-07-23T21:41:37;101776.72;;;21.08;58.98
24752;BME280;27246;52.376;4.628;2022-07-23T21:46:39;101781.91;;;21.05;59.82
24752;BME280;27246;52.376;4.628;2022-07-23T21:51:41;101777.25;;;20.98;60.95
24752;BME280;27246;52.376;4.628;2022-07-23T21:56:46;101773.00;;;20.89;61.41
24752;BME280;27246;52.376;4.628;2022-07-23T22:01:48;101776.53;;;20.85;61.67
24752;BME280;27246;52.376;4.628;2022-07-23T22:06:50;101775.34;;;20.74;61.79
24752;BME280;27246;52.376;4.628;2022-07-23T22:11:52;101780.75;;;20.69;61.71
24752;BME280;27246;52.376;4.628;2022-07-23T22:16:54;101777.50;;;20.72;61.56
24752;BME280;27246;52.376;4.628;2022-07-23T22:21:56;101784.88;;;20.66;61.31
24752;BME280;27246;52.376;4.628;2022-07-23T22:26:58;101779.38;;;20.53;61.82
24752;BME280;27246;52.376;4.628;2022-07-23T22:31:59;101782.91;;;20.42;61.89
24752;BME280;27246;52.376;4.628;2022-07-23T22:37:03;101776.16;;;20.24;62.63
24752;BME280;27246;52.376;4.628;2022-07-23T22:42:05;101779.63;;;20.20;62.84
24752;BME280;27246;52.376;4.628;2022-07-23T22:47:07;101774.13;;;20.06;63.22
24752;BME280;27246;52.376;4.628;2022-07-23T22:52:09;101764.25;;;20.04;63.21
24752;BME280;27246;52.376;4.628;2022-07-23T22:57:11;101761.03;;;20.00;63.61
24752;BME280;27246;52.376;4.628;2022-07-23T23:02:13;101753.56;;;19.94;64.06
24752;BME280;27246;52.376;4.628;2022-07-23T23:07:14;101752.28;;;19.90;64.39
24752;BME280;27246;52.376;4.628;2022-07-23T23:12:16;101755.28;;;19.95;64.04
24752;BME280;27246;52.376;4.628;2022-07-23T23:17:18;101745.34;;;19.99;64.20
24752;BME280;27246;52.376;4.628;2022-07-23T23:22:19;101754.72;;;19.80;64.66
24752;BME280;27246;52.376;4.628;2022-07-23T23:27:21;101755.94;;;19.90;64.21
24752;BME280;27246;52.376;4.628;2022-07-23T23:32:22;101756.53;;;19.99;64.20
24752;BME280;27246;52.376;4.628;2022-07-23T23:37:24;101763.84;;;20.00;63.99
24752;BME280;27246;52.376;4.628;2022-07-23T23:42:26;101756.19;;;19.89;64.04
24752;BME280;27246;52.376;4.628;2022-07-23T23:47:27;101753.56;;;19.94;63.77
24752;BME280;27246;52.376;4.628;2022-07-23T23:52:29;101756.56;;;19.92;63.75
24752;BME280;27246;52.376;4.628;2022-07-23T23:57:31;101754.66;;;19.93;63.94
